Back to top

Cody, WY weather

Yellowstone Regional Airport (AWOS), Cody, WY: 6/04/2020 03:56
Visibility10 statute milessun with broken clouds
View 7-Day Forecast
Area Summary
Sky/CloudsBroken at 10000ft
Weather [last 24 hours]None [thunderstorm began 17:45; thunderstorm ended 18:01; rain began 01:29 ended 01:53 ]
Pressure29.94 in.Hg (1014 hPa)
Dew Point46.9 °F (8.3 °C)
Relative Humidity71.7 %
Last 24-Hour Precip.Trace
Temperature55.9 °F (13.3 °C)red thermometer
Reading TimeMinimum to Maximum Temperature
6-hr ending 6/3@23:5657.9 °F to 72 °F (14.4 °C to 22.2 °C)
6-hr ending 6/3@17:5673 °F to 82 °F (22.8 °C to 27.8 °C)
6-hr ending 6/3@11:5660.1 °F to 73.9 °F (15.6 °C to 23.3 °C)
6-hr ending 6/3@05:5657.9 °F to 69.1 °F (14.4 °C to 20.6 °C)
24-hr ending 6/4@00:5657.9 °F to 82 °F (14.4 °C to 27.8 °C)
Wind0 MPH (0 KT) green arrow pointing at 0 degrees
Wind FromNorth (000 Degrees)
Rolling 24-hr Peak Wind44.9 MPH (39 KT) on 6/3@17:56
Rolling 24-hr Peak Wind FromSouthwest (220 Degrees)
Twilight Begins04:54Sunshine Yesterday
Sunrise05:31N/A
Sunset20:59
Twilight Ends21:36
METARKCOD 040956Z AUTO 00000KT 10SM BKN100 13/08 A2994 RMK AO2 SLP093 T01330083
Tags: